Time;durP1;ratioP1;P1;durP2;ratioP2;P2;SDS_P1;SDS_P2;PMS_P1;PMS_P2;Temp;Humidity;BMP_temperature;BMP_pressure;BME280_temperature;BME280_humidity;BME280_pressure;Samples;Min_cycle;Max_cycle;Signal;HPM_P1;HPM_P2
2024/01/07 00:02:36;;;;;;;14.87;12.37;;;5.70;96.70;;;;;;10415923;28;20233;-66
2024/01/07 00:07:40;;;;;;;13.90;11.47;;;5.70;96.60;;;;;;10417021;28;20355;-69
2024/01/07 00:12:43;;;;;;;12.63;10.80;;;5.70;96.80;;;;;;10420992;28;20273;-68
2024/01/07 00:17:48;;;;;;;13.13;11.20;;;5.70;96.60;;;;;;10422463;28;20730;-67
2024/01/07 00:22:52;;;;;;;13.13;10.93;;;5.70;96.60;;;;;;10417375;28;20312;-68
2024/01/07 00:27:55;;;;;;;14.03;11.20;;;5.60;96.60;;;;;;10421138;28;20608;-67
2024/01/07 00:33:00;;;;;;;13.77;11.13;;;5.60;97.10;;;;;;10419321;28;20207;-67
2024/01/07 00:38:04;;;;;;;12.97;10.67;;;5.60;96.60;;;;;;10417156;28;20215;-68
2024/01/07 00:43:08;;;;;;;14.40;11.13;;;5.60;96.60;;;;;;10424385;28;20698;-67
2024/01/07 00:48:14;;;;;;;13.07;10.80;;;5.60;96.60;;;;;;10424587;28;20254;-66
2024/01/07 00:53:18;;;;;;;13.07;11.40;;;5.50;96.30;;;;;;10424247;28;20718;-67
2024/01/07 00:58:22;;;;;;;14.97;11.17;;;5.50;96.40;;;;;;10422596;28;20752;-67
2024/01/07 01:03:26;;;;;;;16.33;12.33;;;5.60;96.30;;;;;;10425536;28;20226;-67
2024/01/07 01:08:30;;;;;;;18.33;12.93;;;5.50;96.60;;;;;;10421408;28;20257;-68
2024/01/07 01:13:34;;;;;;;16.93;12.97;;;5.40;96.40;;;;;;10424946;28;20731;-67
2024/01/07 01:18:39;;;;;;;17.40;12.53;;;5.40;96.50;;;;;;10423034;28;20219;-68
2024/01/07 01:23:42;;;;;;;18.70;13.13;;;5.40;96.80;;;;;;10422681;28;20214;-66
2024/01/07 01:28:46;;;;;;;17.03;13.47;;;5.40;96.70;;;;;;10423929;28;20280;-68
2024/01/07 01:33:51;;;;;;;16.87;12.90;;;5.30;96.50;;;;;;10422526;28;20660;-67
2024/01/07 01:38:55;;;;;;;15.57;12.83;;;5.30;96.60;;;;;;10420994;28;20292;-68
2024/01/07 01:43:59;;;;;;;16.60;13.07;;;5.30;96.60;;;;;;10420051;28;20561;-68
2024/01/07 01:49:04;;;;;;;17.43;13.10;;;5.30;96.50;;;;;;10422783;28;20223;-67
2024/01/07 01:54:08;;;;;;;15.97;12.37;;;5.40;96.50;;;;;;10420930;28;20658;-67
2024/01/07 01:59:12;;;;;;;16.03;11.77;;;5.40;96.50;;;;;;10427804;28;20296;-68
2024/01/07 02:04:18;;;;;;;16.83;13.00;;;5.40;96.40;;;;;;10421403;28;20264;-68
2024/01/07 02:09:22;;;;;;;15.73;12.33;;;5.40;96.50;;;;;;10425153;28;20235;-68
2024/01/07 02:14:25;;;;;;;16.47;11.70;;;5.30;96.80;;;;;;10419114;28;20265;-67
2024/01/07 02:19:30;;;;;;;15.10;11.80;;;5.20;96.20;;;;;;10423635;28;20580;-67
2024/01/07 02:24:35;;;;;;;14.60;12.00;;;5.10;96.20;;;;;;10432975;28;20235;-67
2024/01/07 02:29:39;;;;;;;14.90;11.90;;;5.10;96.60;;;;;;10420400;28;20696;-68
2024/01/07 02:34:42;;;;;;;15.20;12.60;;;5.20;96.30;;;;;;10433178;28;20218;-67
2024/01/07 02:39:47;;;;;;;16.63;12.43;;;5.20;96.10;;;;;;10413732;28;20616;-67
2024/01/07 02:45:03;;;;;;;16.30;12.33;;;5.10;96.00;;;;;;10402082;28;20203;-68
2024/01/07 02:50:08;;;;;;;14.97;12.47;;;5.00;96.10;;;;;;10399712;28;20273;-68
2024/01/07 02:55:13;;;;;;;16.27;12.70;;;5.10;95.90;;;;;;10405975;28;20207;-69
2024/01/07 03:00:17;;;;;;;15.17;12.23;;;5.00;95.90;;;;;;10405413;28;20279;-66
2024/01/07 03:05:23;;;;;;;13.47;11.63;;;4.90;95.60;;;;;;10403649;28;20573;-66
2024/01/07 03:10:28;;;;;;;14.53;12.13;;;4.90;95.50;;;;;;10406161;28;20221;-65
2024/01/07 03:15:32;;;;;;;13.37;11.40;;;4.90;95.80;;;;;;10408949;28;20688;-68
2024/01/07 03:20:35;;;;;;;13.93;11.23;;;4.90;95.60;;;;;;10405222;28;20724;-68
2024/01/07 03:25:40;;;;;;;13.17;10.97;;;4.90;95.30;;;;;;10404794;28;20943;-66
2024/01/07 03:30:44;;;;;;;13.13;11.73;;;4.90;95.70;;;;;;10406228;28;20633;-68
2024/01/07 03:35:48;;;;;;;13.00;11.00;;;4.90;95.20;;;;;;10401327;28;20771;-67
2024/01/07 03:40:52;;;;;;;12.63;10.80;;;4.90;95.20;;;;;;10411142;28;20264;-66
2024/01/07 03:45:56;;;;;;;12.33;10.90;;;4.80;95.00;;;;;;10414379;28;21447;-67
2024/01/07 03:51:00;;;;;;;13.80;10.57;;;4.70;95.20;;;;;;10413345;28;20766;-67
2024/01/07 03:56:05;;;;;;;12.27;10.07;;;4.70;95.00;;;;;;10413560;28;20588;-68
2024/01/07 04:01:09;;;;;;;11.03;9.67;;;4.60;94.90;;;;;;10409263;28;20194;-68
2024/01/07 04:06:13;;;;;;;11.57;10.27;;;4.60;95.00;;;;;;10414199;28;20280;-67
2024/01/07 04:11:18;;;;;;;12.60;11.07;;;4.70;95.00;;;;;;10414380;28;20247;-67
2024/01/07 04:16:22;;;;;;;13.67;11.03;;;4.70;95.00;;;;;;10414050;28;20219;-66
2024/01/07 04:21:25;;;;;;;13.00;11.33;;;4.70;95.00;;;;;;10413369;28;20260;-69
2024/01/07 04:26:30;;;;;;;13.43;11.43;;;4.60;94.80;;;;;;10413772;28;20222;-66
2024/01/07 04:31:34;;;;;;;12.87;10.90;;;4.50;94.80;;;;;;10412552;28;20626;-65
2024/01/07 04:36:37;;;;;;;14.20;11.57;;;4.60;94.90;;;;;;10412241;28;20280;-67
2024/01/07 04:41:43;;;;;;;13.97;11.50;;;4.60;95.00;;;;;;10413112;28;20230;-69
2024/01/07 04:46:48;;;;;;;16.27;12.20;;;4.60;94.90;;;;;;10412670;28;20305;-68
2024/01/07 04:51:52;;;;;;;15.20;12.23;;;4.60;94.70;;;;;;10407441;28;20230;-68
2024/01/07 04:56:57;;;;;;;14.07;12.17;;;4.60;94.60;;;;;;10412327;28;20254;-68
2024/01/07 05:02:01;;;;;;;15.87;11.60;;;4.60;94.70;;;;;;10407507;28;20286;-67
2024/01/07 05:07:04;;;;;;;13.90;11.63;;;4.60;95.30;;;;;;10408385;28;20217;-67
2024/01/07 05:12:09;;;;;;;13.03;10.93;;;4.60;94.90;;;;;;10407802;28;20219;-68
2024/01/07 05:17:13;;;;;;;14.57;11.33;;;4.60;94.50;;;;;;10410583;28;20285;-67
2024/01/07 05:22:16;;;;;;;14.20;11.27;;;4.60;94.40;;;;;;10414749;28;20209;-68
2024/01/07 05:27:21;;;;;;;13.63;11.30;;;4.50;94.60;;;;;;10409113;28;20227;-67
2024/01/07 05:32:25;;;;;;;14.67;12.10;;;4.30;94.50;;;;;;10410066;28;20273;-66
2024/01/07 05:37:29;;;;;;;13.63;11.07;;;4.30;94.40;;;;;;10409274;28;20248;-69
2024/01/07 05:42:33;;;;;;;13.80;11.67;;;4.30;94.50;;;;;;10409596;28;20237;-66
2024/01/07 05:47:37;;;;;;;14.40;11.90;;;4.30;94.70;;;;;;10421514;28;20760;-66
2024/01/07 05:52:41;;;;;;;14.23;11.80;;;4.40;94.30;;;;;;10409440;28;20676;-67
2024/01/07 05:57:46;;;;;;;14.67;12.07;;;4.40;94.10;;;;;;10409479;28;20226;-67
2024/01/07 06:02:49;;;;;;;16.10;12.47;;;4.30;94.20;;;;;;10396384;28;20575;-67
2024/01/07 06:07:53;;;;;;;14.00;11.67;;;4.30;94.10;;;;;;10399704;28;20701;-65
2024/01/07 06:12:58;;;;;;;14.93;12.10;;;4.40;94.20;;;;;;10408849;28;20758;-67
2024/01/07 06:18:02;;;;;;;16.00;12.43;;;4.30;94.00;;;;;;10410087;28;20220;-67
2024/01/07 06:23:05;;;;;;;18.23;13.27;;;4.30;94.20;;;;;;10409297;28;20263;-66
2024/01/07 06:28:11;;;;;;;16.77;12.67;;;4.30;94.20;;;;;;10407994;28;20654;-67
2024/01/07 06:33:14;;;;;;;16.67;12.50;;;4.30;94.90;;;;;;10407050;28;20226;-66
2024/01/07 06:38:18;;;;;;;15.70;12.43;;;4.40;94.40;;;;;;10407272;28;20231;-66
2024/01/07 06:43:23;;;;;;;17.23;12.80;;;4.30;94.00;;;;;;10407545;28;20202;-67
2024/01/07 06:48:27;;;;;;;15.83;12.17;;;4.30;94.20;;;;;;10414234;28;20257;-68
2024/01/07 06:53:31;;;;;;;16.13;13.10;;;4.20;93.90;;;;;;10410119;28;20276;-67
2024/01/07 06:58:35;;;;;;;15.87;12.17;;;4.20;94.10;;;;;;10410702;28;20273;-66
2024/01/07 07:03:41;;;;;;;17.57;12.83;;;4.20;94.40;;;;;;10398755;28;20241;-66
2024/01/07 07:08:44;;;;;;;15.63;12.27;;;4.20;93.90;;;;;;10396191;28;20222;-67
2024/01/07 07:13:49;;;;;;;13.87;11.73;;;4.20;94.30;;;;;;10404837;28;20253;-68
2024/01/07 07:18:53;;;;;;;13.97;11.03;;;4.20;94.00;;;;;;10406647;28;20279;-66
2024/01/07 07:23:57;;;;;;;12.20;9.83;;;4.20;93.80;;;;;;10406230;28;20209;-65
2024/01/07 07:29:03;;;;;;;11.50;9.30;;;4.20;93.70;;;;;;10409869;28;20279;-65
2024/01/07 07:34:11;;;;;;;11.97;9.30;;;4.10;93.60;;;;;;10400299;28;20275;-67
2024/01/07 07:39:15;;;;;;;11.67;9.50;;;4.10;93.50;;;;;;10407908;28;20244;-69
2024/01/07 07:44:20;;;;;;;11.70;9.80;;;4.00;94.00;;;;;;10411233;28;20206;-67
2024/01/07 07:49:24;;;;;;;12.33;9.70;;;4.10;93.70;;;;;;10407701;28;20213;-67
2024/01/07 07:54:30;;;;;;;11.70;10.10;;;4.00;93.70;;;;;;10404633;28;20225;-67
2024/01/07 07:59:39;;;;;;;12.30;10.13;;;4.00;93.90;;;;;;10410946;28;20364;-67
2024/01/07 08:04:43;;;;;;;15.53;10.37;;;4.00;93.80;;;;;;10409596;28;20227;-67
2024/01/07 08:09:47;;;;;;;11.30;9.93;;;4.00;93.70;;;;;;10406686;28;20567;-66
2024/01/07 08:14:52;;;;;;;16.40;10.80;;;4.00;93.60;;;;;;10402379;28;20201;-67
2024/01/07 08:19:56;;;;;;;13.93;10.20;;;4.00;93.40;;;;;;10405273;28;20265;-67
2024/01/07 08:25:00;;;;;;;14.13;11.10;;;3.90;93.20;;;;;;10404478;28;20199;-67
2024/01/07 08:30:07;;;;;;;12.63;10.07;;;3.90;93.30;;;;;;10407785;28;20267;-67
2024/01/07 08:35:11;;;;;;;11.07;9.67;;;3.90;93.20;;;;;;10410531;28;20201;-67
2024/01/07 08:40:15;;;;;;;12.80;9.10;;;3.90;92.80;;;;;;10409046;28;20203;-67
2024/01/07 08:45:20;;;;;;;12.60;11.30;;;3.80;92.50;;;;;;10413028;28;20460;-67
2024/01/07 08:50:24;;;;;;;10.83;9.73;;;3.80;92.00;;;;;;10411384;28;20277;-67
2024/01/07 08:55:27;;;;;;;11.97;8.67;;;3.70;92.40;;;;;;10412781;28;20203;-67
2024/01/07 09:00:32;;;;;;;11.43;9.27;;;3.70;92.60;;;;;;10412241;28;20195;-68
2024/01/07 09:05:36;;;;;;;9.80;8.80;;;3.80;92.60;;;;;;10416521;28;20700;-65
2024/01/07 09:10:40;;;;;;;9.80;7.80;;;3.80;92.80;;;;;;10404463;28;20800;-66
2024/01/07 09:15:45;;;;;;;10.47;8.37;;;3.70;91.90;;;;;;10407529;28;20737;-67
2024/01/07 09:20:48;;;;;;;9.83;7.70;;;3.60;92.20;;;;;;10412658;28;20215;-67
2024/01/07 09:25:52;;;;;;;9.87;7.70;;;3.50;92.20;;;;;;10410639;28;20291;-68
2024/01/07 09:30:57;;;;;;;9.82;8.82;;;3.40;92.10;;;;;;10403755;28;20448;-67
2024/01/07 09:36:00;;;;;;;9.53;7.73;;;3.60;91.30;;;;;;10413725;28;20254;-67
2024/01/07 09:41:17;;;;;;;10.00;8.10;;;3.60;91.60;;;;;;10409667;28;20256;-67
2024/01/07 09:46:24;;;;;;;10.03;8.13;;;3.70;92.10;;;;;;10401619;28;20221;-67
2024/01/07 09:51:30;;;;;;;9.57;7.77;;;3.70;91.60;;;;;;10400720;28;20274;-67
2024/01/07 09:56:40;;;;;;;9.23;7.50;;;3.70;92.10;;;;;;10399908;28;20281;-66
2024/01/07 10:01:46;;;;;;;8.93;7.00;;;3.70;91.90;;;;;;10411471;28;20250;-67
2024/01/07 10:06:53;;;;;;;8.73;6.80;;;3.70;91.60;;;;;;10414071;28;20224;-66
2024/01/07 10:11:56;;;;;;;10.17;7.97;;;3.60;91.40;;;;;;10400218;28;20620;-67
2024/01/07 10:17:02;;;;;;;11.00;8.50;;;3.60;91.50;;;;;;10395405;28;20710;-66
2024/01/07 10:22:06;;;;;;;7.93;6.47;;;3.70;91.90;;;;;;10403742;28;20691;-67
2024/01/07 10:27:10;;;;;;;8.17;5.67;;;3.80;91.90;;;;;;10408736;28;20655;-67
2024/01/07 10:32:15;;;;;;;8.70;5.93;;;3.80;91.10;;;;;;10413679;28;20247;-67
2024/01/07 10:37:19;;;;;;;7.90;6.57;;;3.80;90.90;;;;;;10407366;28;20492;-68
2024/01/07 10:42:24;;;;;;;5.80;5.20;;;4.00;90.00;;;;;;10384185;28;20255;-67
2024/01/07 10:47:31;;;;;;;7.43;4.93;;;3.80;90.10;;;;;;10406699;28;20284;-68
2024/01/07 10:52:37;;;;;;;5.50;4.73;;;3.70;90.70;;;;;;10406781;28;20261;-68
2024/01/07 10:57:45;;;;;;;4.83;4.33;;;3.60;90.90;;;;;;10399815;28;20223;-68
2024/01/07 11:03:05;;;;;;;5.30;4.80;;;3.60;90.40;;;;;;10410110;28;20260;-66
2024/01/07 11:08:16;;;;;;;6.20;4.60;;;3.70;90.50;;;;;;10410280;28;20211;-67
2024/01/07 11:13:33;;;;;;;5.77;4.40;;;3.60;89.70;;;;;;10400755;28;20228;-67
2024/01/07 11:18:46;;;;;;;5.30;4.17;;;3.50;89.80;;;;;;10387728;28;20285;-69
2024/01/07 11:23:50;;;;;;;5.70;4.00;;;3.30;89.00;;;;;;10402249;28;20259;-68
2024/01/07 11:28:55;;;;;;;4.10;3.33;;;3.40;89.60;;;;;;10409558;28;20228;-68
2024/01/07 11:34:00;;;;;;;4.47;3.50;;;3.40;89.10;;;;;;10405388;28;20247;-68
2024/01/07 11:39:08;;;;;;;3.60;3.13;;;3.40;87.60;;;;;;10402659;28;20240;-68
2024/01/07 11:44:14;;;;;;;4.77;3.53;;;3.30;87.50;;;;;;10408377;28;20248;-68
2024/01/07 11:49:19;;;;;;;5.87;3.77;;;3.30;87.70;;;;;;10403324;28;20308;-68
2024/01/07 11:54:23;;;;;;;4.27;3.67;;;3.20;87.30;;;;;;10411654;28;20203;-68
2024/01/07 11:59:26;;;;;;;5.40;4.03;;;3.30;87.40;;;;;;10413271;28;20638;-68
2024/01/07 12:04:31;;;;;;;4.83;3.73;;;3.40;88.10;;;;;;10414298;28;20551;-68
2024/01/07 12:09:35;;;;;;;5.00;4.37;;;3.40;88.20;;;;;;10411536;28;20741;-68
2024/01/07 12:14:39;;;;;;;5.63;5.03;;;3.50;87.10;;;;;;10408179;28;20519;-68
2024/01/07 12:19:44;;;;;;;5.07;3.70;;;3.80;84.60;;;;;;10406279;28;20223;-68
2024/01/07 12:24:48;;;;;;;4.47;3.40;;;3.80;86.50;;;;;;10413278;28;20206;-68
2024/01/07 12:29:56;;;;;;;4.10;3.47;;;3.80;87.30;;;;;;10412580;28;20257;-68
2024/01/07 12:35:02;;;;;;;3.77;3.03;;;3.70;86.30;;;;;;10412412;28;20912;-68
2024/01/07 12:40:09;;;;;;;5.17;3.73;;;3.60;87.20;;;;;;10414257;28;20639;-68
2024/01/07 12:45:14;;;;;;;5.80;3.57;;;3.50;84.40;;;;;;10409309;28;20200;-68
2024/01/07 12:50:23;;;;;;;4.53;3.50;;;3.40;83.70;;;;;;10423142;28;20250;-68
2024/01/07 12:55:27;;;;;;;5.80;3.80;;;3.30;83.60;;;;;;10407359;28;20857;-68
2024/01/07 13:00:30;;;;;;;4.27;3.63;;;3.30;84.40;;;;;;10418782;28;20203;-68
2024/01/07 13:05:36;;;;;;;4.53;3.90;;;3.30;85.10;;;;;;10409562;28;20348;-68
2024/01/07 13:10:39;;;;;;;4.80;3.53;;;3.40;84.00;;;;;;10413912;28;20212;-68
2024/01/07 13:15:43;;;;;;;6.47;3.63;;;3.40;83.50;;;;;;10406348;28;20283;-67
2024/01/07 13:20:51;;;;;;;6.47;3.50;;;3.40;83.00;;;;;;10399955;28;20209;-68
2024/01/07 13:25:55;;;;;;;4.63;4.17;;;3.40;83.60;;;;;;10404941;28;20451;-67
2024/01/07 13:30:58;;;;;;;6.60;4.53;;;3.50;80.70;;;;;;10426615;28;20766;-68
2024/01/07 13:36:08;;;;;;;5.43;3.70;;;3.60;82.20;;;;;;10417009;28;20704;-67
2024/01/07 13:41:13;;;;;;;4.97;3.17;;;3.60;82.90;;;;;;10420837;28;20254;-67
2024/01/07 13:46:19;;;;;;;3.50;2.80;;;3.60;83.70;;;;;;10418763;28;20228;-68
2024/01/07 13:51:25;;;;;;;4.03;3.10;;;3.60;82.10;;;;;;10395915;28;20238;-68
2024/01/07 13:56:29;;;;;;;3.47;2.80;;;3.60;82.90;;;;;;10411732;28;20231;-68
2024/01/07 14:01:33;;;;;;;3.03;2.73;;;3.70;82.70;;;;;;10381324;28;20204;-67
2024/01/07 14:06:38;;;;;;;3.40;2.70;;;3.70;83.70;;;;;;10424617;28;20227;-67
2024/01/07 14:11:41;;;;;;;4.97;2.83;;;3.70;82.00;;;;;;10399390;28;20233;-69
2024/01/07 14:16:45;;;;;;;3.47;2.73;;;3.80;84.40;;;;;;10411876;28;20668;-67
2024/01/07 14:21:52;;;;;;;2.23;2.00;;;3.70;86.00;;;;;;10402381;28;20211;-66
2024/01/07 14:26:56;;;;;;;4.83;2.17;;;3.70;83.30;;;;;;10409907;28;20256;-62
2024/01/07 14:32:02;;;;;;;3.03;2.10;;;3.80;86.00;;;;;;10412166;28;20713;-63
2024/01/07 14:37:10;;;;;;;2.07;1.83;;;3.80;84.60;;;;;;10412130;28;20209;-61
2024/01/07 14:42:14;;;;;;;1.60;1.50;;;3.80;84.20;;;;;;10412056;28;20185;-57
2024/01/07 14:47:18;;;;;;;2.30;2.10;;;3.80;83.40;;;;;;10412158;28;20225;-64
2024/01/07 14:52:24;;;;;;;2.85;2.40;;;3.80;84.60;;;;;;10411281;28;20441;-65
2024/01/07 14:57:28;;;;;;;3.40;2.80;;;3.80;84.40;;;;;;10410817;28;20290;-64
2024/01/07 15:02:32;;;;;;;3.77;2.40;;;3.80;85.80;;;;;;10411175;28;20198;-65
2024/01/07 15:07:37;;;;;;;3.67;2.40;;;3.80;83.90;;;;;;10410728;28;20220;-65
2024/01/07 15:12:40;;;;;;;2.77;2.10;;;3.80;82.60;;;;;;10409816;28;20248;-65
2024/01/07 15:17:53;;;;;;;2.57;2.20;;;3.70;82.60;;;;;;10409844;28;20224;-64
2024/01/07 15:22:58;;;;;;;2.93;2.07;;;3.80;83.40;;;;;;10409699;28;20820;-59
2024/01/07 15:28:02;;;;;;;2.90;2.57;;;3.80;82.60;;;;;;10401260;28;20226;-65
2024/01/07 15:33:06;;;;;;;3.63;2.40;;;3.80;79.90;;;;;;10390291;28;20896;-65
2024/01/07 15:38:11;;;;;;;4.60;2.67;;;3.70;82.30;;;;;;10415532;28;20205;-63
2024/01/07 15:43:15;;;;;;;3.17;2.47;;;3.70;81.80;;;;;;10428514;28;20746;-63
2024/01/07 15:48:19;;;;;;;2.93;2.50;;;3.70;81.90;;;;;;10409415;28;20227;-62
2024/01/07 15:53:31;;;;;;;3.00;2.70;;;3.60;81.40;;;;;;10406767;28;20448;-66
2024/01/07 15:58:35;;;;;;;4.03;2.50;;;3.60;80.70;;;;;;10413982;28;20227;-62
2024/01/07 16:03:38;;;;;;;2.60;2.33;;;3.70;81.50;;;;;;10411675;28;20208;-62
2024/01/07 16:08:44;;;;;;;2.60;2.40;;;3.60;81.00;;;;;;10424009;28;20240;-63
2024/01/07 16:13:47;;;;;;;3.43;2.70;;;3.60;79.70;;;;;;10406782;28;20450;-63
2024/01/07 16:18:51;;;;;;;2.80;2.20;;;3.60;78.50;;;;;;10412876;28;20224;-60
2024/01/07 16:23:56;;;;;;;2.87;2.10;;;3.50;79.70;;;;;;10405338;28;20265;-60
2024/01/07 16:28:59;;;;;;;3.87;2.53;;;3.40;80.90;;;;;;10404963;28;20579;-59
2024/01/07 16:34:03;;;;;;;3.03;2.53;;;3.40;82.00;;;;;;10410961;28;20298;-60
2024/01/07 16:39:08;;;;;;;3.63;2.63;;;3.30;80.30;;;;;;10410341;28;20201;-59
2024/01/07 16:44:13;;;;;;;3.67;2.73;;;3.40;81.40;;;;;;10407508;28;20207;-59
2024/01/07 16:49:16;;;;;;;4.43;2.80;;;3.40;81.40;;;;;;10416764;28;20585;-60
2024/01/07 16:54:24;;;;;;;3.73;2.80;;;3.40;81.20;;;;;;10432647;28;20242;-60
2024/01/07 16:59:28;;;;;;;4.87;2.83;;;3.30;81.80;;;;;;10412774;28;20301;-59
2024/01/07 17:04:32;;;;;;;5.27;3.47;;;3.20;81.60;;;;;;10412897;28;20196;-60
2024/01/07 17:09:37;;;;;;;4.20;3.70;;;3.20;82.30;;;;;;10408603;28;20437;-62
2024/01/07 17:14:41;;;;;;;3.67;2.80;;;3.40;80.70;;;;;;10410486;28;20247;-62
2024/01/07 17:19:45;;;;;;;3.70;2.50;;;3.40;81.80;;;;;;10414458;28;20796;-62
2024/01/07 17:24:50;;;;;;;6.38;3.90;;;3.40;82.00;;;;;;10412653;28;20496;-62
2024/01/07 17:29:53;;;;;;;5.37;2.90;;;3.40;81.30;;;;;;10407503;28;20229;-62
2024/01/07 17:34:57;;;;;;;6.07;3.07;;;3.40;81.90;;;;;;10411888;28;20325;-63
2024/01/07 17:40:02;;;;;;;3.53;2.83;;;3.30;81.20;;;;;;10417021;28;20224;-62
2024/01/07 17:45:08;;;;;;;4.77;3.40;;;3.10;81.20;;;;;;10412858;28;20222;-60
2024/01/07 17:50:13;;;;;;;4.93;3.30;;;3.10;81.70;;;;;;10416061;28;20250;-61
2024/01/07 17:55:18;;;;;;;5.30;3.10;;;3.00;81.20;;;;;;10420261;28;20217;-62
2024/01/07 18:00:22;;;;;;;5.27;3.40;;;2.90;81.40;;;;;;10418934;28;20203;-60
2024/01/07 18:05:26;;;;;;;5.27;3.03;;;2.90;82.50;;;;;;10411933;28;20196;-60
2024/01/07 18:10:31;;;;;;;5.83;3.80;;;2.80;81.40;;;;;;10403788;28;20802;-62
2024/01/07 18:15:35;;;;;;;5.03;3.37;;;2.70;81.60;;;;;;10421370;28;20254;-62
2024/01/07 18:20:39;;;;;;;5.30;3.73;;;2.70;81.50;;;;;;10408591;28;20211;-62
2024/01/07 18:25:44;;;;;;;6.33;3.67;;;2.70;81.40;;;;;;10409740;28;20249;-62
2024/01/07 18:30:48;;;;;;;5.63;3.97;;;2.70;82.70;;;;;;10410380;28;20220;-61
2024/01/07 18:35:51;;;;;;;7.33;4.37;;;2.70;81.30;;;;;;10416275;28;20239;-59
2024/01/07 18:40:56;;;;;;;5.10;4.10;;;2.70;81.90;;;;;;10418112;28;20206;-61
2024/01/07 18:46:01;;;;;;;5.70;4.03;;;2.70;81.00;;;;;;10412388;28;20822;-63
2024/01/07 18:51:04;;;;;;;5.23;3.33;;;2.60;81.00;;;;;;10411994;28;20266;-60
2024/01/07 18:56:10;;;;;;;5.27;4.20;;;2.60;80.70;;;;;;10416775;28;20267;-61
2024/01/07 19:01:14;;;;;;;5.77;4.40;;;2.50;80.80;;;;;;10404122;28;20199;-59
2024/01/07 19:06:17;;;;;;;6.57;4.57;;;2.50;80.80;;;;;;10408303;28;20239;-61
2024/01/07 19:11:22;;;;;;;6.07;4.20;;;2.50;80.30;;;;;;10414371;28;20453;-61
2024/01/07 19:16:26;;;;;;;6.30;4.17;;;2.50;80.70;;;;;;10408215;28;20481;-61
2024/01/07 19:21:30;;;;;;;5.40;4.50;;;2.40;80.00;;;;;;10407893;28;20453;-61
2024/01/07 19:26:36;;;;;;;6.87;4.27;;;2.50;79.80;;;;;;10411887;28;20247;-61
2024/01/07 19:31:40;;;;;;;7.50;4.30;;;2.50;80.40;;;;;;10407082;28;20257;-59
2024/01/07 19:36:43;;;;;;;6.87;5.20;;;2.50;80.10;;;;;;10402101;28;20481;-61
2024/01/07 19:41:48;;;;;;;6.07;4.47;;;2.70;79.30;;;;;;10404611;28;20258;-60
2024/01/07 19:46:52;;;;;;;5.93;4.70;;;2.70;79.90;;;;;;10408895;28;20317;-59
2024/01/07 19:51:55;;;;;;;7.13;4.60;;;2.60;79.70;;;;;;10409592;28;20227;-60
2024/01/07 19:57:00;;;;;;;5.83;4.60;;;2.60;79.70;;;;;;10412745;28;20723;-60
2024/01/07 20:02:05;;;;;;;7.00;6.00;;;2.50;79.70;;;;;;10405811;28;20455;-62
2024/01/07 20:07:08;;;;;;;5.40;4.90;;;2.70;78.70;;;;;;10404734;28;20674;-60
2024/01/07 20:12:13;;;;;;;7.43;5.23;;;2.70;80.00;;;;;;10409216;28;20230;-60
2024/01/07 20:17:17;;;;;;;7.77;5.90;;;2.60;79.00;;;;;;10406363;28;20500;-59
2024/01/07 20:22:21;;;;;;;7.53;4.83;;;2.70;78.90;;;;;;10413643;28;20219;-60
2024/01/07 20:27:26;;;;;;;8.20;5.70;;;2.60;78.90;;;;;;10411161;28;20693;-60
2024/01/07 20:32:31;;;;;;;8.73;5.27;;;2.60;79.00;;;;;;10417779;28;20256;-58
2024/01/07 20:37:35;;;;;;;7.37;5.30;;;2.60;79.10;;;;;;10417481;28;20297;-61
2024/01/07 20:42:40;;;;;;;9.07;7.28;;;2.50;79.20;;;;;;10410995;28;20449;-61
2024/01/07 20:47:47;;;;;;;8.03;6.23;;;2.50;79.40;;;;;;10406383;28;20520;-62
2024/01/07 20:52:50;;;;;;;9.07;6.60;;;2.50;79.60;;;;;;10412962;28;20210;-63
2024/01/07 20:57:55;;;;;;;7.67;6.17;;;2.50;79.50;;;;;;10409738;28;20324;-61
2024/01/07 21:02:59;;;;;;;7.93;6.30;;;2.50;79.70;;;;;;10416948;28;20229;-61
2024/01/07 21:08:03;;;;;;;7.03;5.97;;;2.40;79.90;;;;;;10414932;28;20805;-62
2024/01/07 21:13:09;;;;;;;7.63;5.70;;;2.30;80.00;;;;;;10422071;28;20208;-61
2024/01/07 21:18:14;;;;;;;5.93;5.33;;;2.30;80.00;;;;;;10424621;28;20259;-64
2024/01/07 21:23:18;;;;;;;8.77;5.67;;;2.40;79.70;;;;;;10414602;28;20265;-67
2024/01/07 21:28:23;;;;;;;7.17;5.20;;;2.40;79.30;;;;;;10413581;28;20224;-63
2024/01/07 21:33:27;;;;;;;7.07;5.07;;;2.40;79.30;;;;;;10421868;28;20230;-65
2024/01/07 21:38:31;;;;;;;6.73;4.73;;;2.40;78.60;;;;;;10417296;28;20302;-64
2024/01/07 21:43:36;;;;;;;6.43;4.80;;;2.40;78.90;;;;;;10408656;28;20266;-63
2024/01/07 21:48:40;;;;;;;7.40;4.00;;;2.50;78.30;;;;;;10404867;28;20755;-63
2024/01/07 21:53:44;;;;;;;5.43;3.87;;;2.50;79.00;;;;;;10427006;28;20229;-62
2024/01/07 21:58:48;;;;;;;4.83;3.53;;;2.50;78.30;;;;;;10421751;28;20252;-62
2024/01/07 22:03:52;;;;;;;5.17;3.73;;;2.40;78.50;;;;;;10407186;28;20606;-61
2024/01/07 22:08:56;;;;;;;4.10;3.50;;;2.40;78.10;;;;;;10409340;28;20285;-63
2024/01/07 22:14:01;;;;;;;4.07;3.67;;;2.30;78.60;;;;;;10409387;28;20227;-63
2024/01/07 22:19:04;;;;;;;5.97;3.47;;;2.30;77.90;;;;;;10413788;28;20231;-63
2024/01/07 22:24:09;;;;;;;4.17;2.80;;;2.30;76.80;;;;;;10409637;28;20261;-62
2024/01/07 22:29:14;;;;;;;4.10;2.80;;;2.30;76.20;;;;;;10409349;28;20199;-64
2024/01/07 22:34:17;;;;;;;5.00;2.50;;;2.30;77.10;;;;;;10408788;28;20199;-65
2024/01/07 22:39:21;;;;;;;3.03;2.60;;;2.30;76.00;;;;;;10397917;28;20221;-62
2024/01/07 22:44:26;;;;;;;3.17;2.80;;;2.30;76.60;;;;;;10404704;28;20196;-63
2024/01/07 22:49:30;;;;;;;4.57;3.40;;;2.30;75.70;;;;;;10435087;28;20218;-64
2024/01/07 22:54:34;;;;;;;5.63;3.47;;;2.30;75.90;;;;;;10407885;28;20266;-62
2024/01/07 22:59:39;;;;;;;4.03;2.73;;;2.30;76.30;;;;;;10412948;28;20235;-63
2024/01/07 23:04:44;;;;;;;4.10;2.87;;;2.30;75.90;;;;;;10400174;28;20230;-63
2024/01/07 23:09:47;;;;;;;5.73;3.50;;;2.40;75.90;;;;;;10415407;28;20219;-63
2024/01/07 23:14:52;;;;;;;4.23;3.50;;;2.30;75.90;;;;;;10442019;28;20249;-61
2024/01/07 23:19:56;;;;;;;4.03;3.20;;;2.20;75.70;;;;;;10407109;28;20291;-60
2024/01/07 23:24:59;;;;;;;4.90;3.47;;;2.10;75.00;;;;;;10415115;28;20603;-64
2024/01/07 23:30:05;;;;;;;5.30;3.70;;;2.00;74.50;;;;;;10422725;28;20265;-62
2024/01/07 23:35:10;;;;;;;5.77;3.73;;;2.00;75.50;;;;;;10447857;28;20235;-62
2024/01/07 23:40:13;;;;;;;5.43;4.30;;;2.00;75.30;;;;;;10407047;28;20241;-61
2024/01/07 23:45:18;;;;;;;6.13;4.30;;;2.00;75.50;;;;;;10406485;28;20203;-59
2024/01/07 23:50:22;;;;;;;6.30;4.77;;;2.00;75.50;;;;;;10406473;28;20714;-61
2024/01/07 23:55:26;;;;;;;6.03;4.87;;;1.90;75.60;;;;;;10410052;28;20222;-61
